createdAt,value
2017-04-03T00:00:38.968Z,40.50
2017-04-03T00:01:36.806Z,40.40
2017-04-03T00:02:34.598Z,40.40
2017-04-03T00:03:32.469Z,40.40
2017-04-03T00:04:30.264Z,40.50
2017-04-03T00:05:28.093Z,40.40
2017-04-03T00:06:25.973Z,40.40
2017-04-03T00:07:24.509Z,40.40
2017-04-03T00:08:22.293Z,40.10
2017-04-03T00:09:20.081Z,40.30
2017-04-03T00:10:18.026Z,40.30
2017-04-03T00:11:15.840Z,40.40
2017-04-03T00:12:13.627Z,40.40
2017-04-03T00:13:11.437Z,40.40
2017-04-03T00:14:09.231Z,41.10
2017-04-03T00:15:07.041Z,40.30
2017-04-03T00:16:04.929Z,40.40
2017-04-03T00:17:02.733Z,40.40
2017-04-03T00:18:00.506Z,40.40
2017-04-03T00:18:58.286Z,40.30
2017-04-03T00:19:56.114Z,40.30
2017-04-03T00:20:53.897Z,40.30
2017-04-03T00:21:51.889Z,40.30
2017-04-03T00:22:50.440Z,40.20
2017-04-03T00:23:48.237Z,40.30
2017-04-03T00:24:46.490Z,40.30
2017-04-03T00:26:42.749Z,40.30
2017-04-03T00:27:40.543Z,40.30
2017-04-03T00:28:38.337Z,40.30
2017-04-03T00:29:36.132Z,40.30
2017-04-03T00:30:33.945Z,40.20
2017-04-03T00:31:31.717Z,40.20
2017-04-03T00:32:29.510Z,40.20
2017-04-03T00:33:27.297Z,40.30
2017-04-03T00:34:25.105Z,40.30
2017-04-03T00:35:22.917Z,40.40
2017-04-03T00:36:20.719Z,40.30
2017-04-03T00:37:18.509Z,40.30
2017-04-03T00:38:16.285Z,40.30
2017-04-03T00:39:14.096Z,40.30
2017-04-03T00:40:11.976Z,40.30
2017-04-03T00:41:09.785Z,40.30
2017-04-03T00:42:07.580Z,40.30
2017-04-03T00:43:06.117Z,40.20
2017-04-03T00:44:03.925Z,40.30
2017-04-03T00:45:01.701Z,40.20
2017-04-03T00:45:59.486Z,40.30
2017-04-03T00:46:57.281Z,40.20
2017-04-03T00:47:55.065Z,40.20
2017-04-03T00:48:52.857Z,40.20
2017-04-03T00:49:50.642Z,40.20
2017-04-03T00:50:48.472Z,40.20
2017-04-03T00:51:46.278Z,40.20
2017-04-03T00:52:44.052Z,40.20
2017-04-03T00:53:41.841Z,40.20
2017-04-03T00:54:39.637Z,40.20
2017-04-03T00:55:37.417Z,40.20
2017-04-03T00:56:35.231Z,40.20
2017-04-03T00:57:33.009Z,40.20
2017-04-03T00:58:30.816Z,40.20
2017-04-03T00:59:28.614Z,40.20
2017-04-03T01:00:26.497Z,40.20
2017-04-03T01:01:24.327Z,40.20
2017-04-03T01:02:22.137Z,40.20
2017-04-03T01:03:19.940Z,40.20
2017-04-03T01:04:17.714Z,40.20
2017-04-03T01:05:15.514Z,40.20
2017-04-03T01:06:13.306Z,40.20
2017-04-03T01:07:11.881Z,40.20
2017-04-03T01:08:10.419Z,40.20
2017-04-03T01:09:08.213Z,40.20
2017-04-03T01:10:06.016Z,40.20
2017-04-03T01:11:03.801Z,40.20
2017-04-03T01:12:02.341Z,40.20
2017-04-03T01:13:00.117Z,40.80
2017-04-03T01:13:58.733Z,40.20
2017-04-03T01:14:56.530Z,40.20
2017-04-03T01:15:54.325Z,40.20
2017-04-03T01:16:52.134Z,40.10
2017-04-03T01:17:49.914Z,40.20
2017-04-03T01:18:47.700Z,40.20
2017-04-03T01:19:45.498Z,40.20
2017-04-03T01:20:43.352Z,40.10
2017-04-03T01:21:41.138Z,40.20
2017-04-03T01:22:39.021Z,40.20
2017-04-03T01:23:36.815Z,40.20
2017-04-03T01:24:34.598Z,40.10
2017-04-03T01:25:32.385Z,40.10
2017-04-03T01:26:30.178Z,40.20
2017-04-03T01:27:27.984Z,40.20
2017-04-03T01:28:25.780Z,40.20
2017-04-03T01:29:23.557Z,40.20
2017-04-03T01:30:21.381Z,40.20
2017-04-03T01:31:19.186Z,40.20
2017-04-03T01:32:16.995Z,40.10
2017-04-03T01:33:14.777Z,40.10
2017-04-03T01:34:12.558Z,40.10
2017-04-03T01:35:10.337Z,40.20
2017-04-03T01:36:08.190Z,40.10
2017-04-03T01:37:05.972Z,40.50
2017-04-03T01:38:03.758Z,40.10
2017-04-03T01:39:01.578Z,40.10
2017-04-03T01:39:59.369Z,40.20
2017-04-03T01:40:57.161Z,40.10
2017-04-03T01:41:55.073Z,40.10
2017-04-03T01:42:52.877Z,40.10
2017-04-03T01:43:50.684Z,40.10
2017-04-03T01:44:48.501Z,40.10
2017-04-03T01:45:46.297Z,40.10
2017-04-03T01:46:44.094Z,40.10
2017-04-03T01:47:41.929Z,40.10
2017-04-03T01:48:39.737Z,40.10
2017-04-03T01:49:37.541Z,40.10
2017-04-03T01:50:35.304Z,40.10
2017-04-03T01:51:33.116Z,40.10
2017-04-03T01:52:30.971Z,40.10
2017-04-03T01:53:29.181Z,40.10
2017-04-03T01:54:26.951Z,40.10
2017-04-03T01:55:24.709Z,40.10
2017-04-03T01:56:22.462Z,40.10
2017-04-03T01:57:20.225Z,40.10
2017-04-03T01:58:18.005Z,40.10
2017-04-03T01:59:15.770Z,40.10
2017-04-03T02:00:13.527Z,40.10
2017-04-03T02:01:11.310Z,40.10
2017-04-03T02:02:09.091Z,40.10
2017-04-03T02:03:06.910Z,40.10
2017-04-03T02:04:04.673Z,40.10
2017-04-03T02:05:02.453Z,40.10
2017-04-03T02:06:00.229Z,40.10
2017-04-03T02:06:58.001Z,40.10
2017-04-03T02:07:55.792Z,40.10
2017-04-03T02:08:53.569Z,40.10
2017-04-03T02:09:51.389Z,40.10
2017-04-03T02:10:49.157Z,40.10
2017-04-03T02:11:46.938Z,40.10
2017-04-03T02:12:44.711Z,40.10
2017-04-03T02:13:42.508Z,40.10
2017-04-03T02:14:40.289Z,40.10
2017-04-03T02:15:38.073Z,40.10
2017-04-03T02:16:35.853Z,40.10
2017-04-03T02:17:33.637Z,40.10
2017-04-03T02:18:31.437Z,40.10
2017-04-03T02:19:29.217Z,40.10
2017-04-03T02:20:27.046Z,40.10
2017-04-03T02:21:24.801Z,40.10
2017-04-03T02:22:22.583Z,40.10
2017-04-03T02:23:20.377Z,40.10
2017-04-03T02:24:18.913Z,40.10
2017-04-03T02:25:16.736Z,40.10
2017-04-03T02:26:14.594Z,40.00
2017-04-03T02:27:12.374Z,40.10
2017-04-03T02:28:10.157Z,40.00
2017-04-03T02:29:07.921Z,40.10
2017-04-03T02:30:05.697Z,40.10
2017-04-03T02:31:03.461Z,40.10
2017-04-03T02:32:01.248Z,40.10
2017-04-03T02:32:59.025Z,40.10
2017-04-03T02:33:56.785Z,40.10
2017-04-03T02:34:54.582Z,40.10
2017-04-03T02:35:52.367Z,40.10
2017-04-03T02:36:50.126Z,40.10
2017-04-03T02:37:47.891Z,40.10
2017-04-03T02:38:45.656Z,40.10
2017-04-03T02:39:43.429Z,40.50
2017-04-03T02:40:41.953Z,40.70
2017-04-03T02:41:39.717Z,40.10
2017-04-03T02:42:37.474Z,40.10
2017-04-03T02:43:35.242Z,40.10
2017-04-03T02:44:33.009Z,40.10
2017-04-03T02:45:30.779Z,40.10
2017-04-03T02:46:28.546Z,40.10
2017-04-03T02:47:26.325Z,40.10
2017-04-03T02:48:24.094Z,40.10
2017-04-03T02:49:22.620Z,40.10
2017-04-03T02:50:20.386Z,40.00
2017-04-03T02:51:18.181Z,40.10
2017-04-03T02:52:16.001Z,40.10
2017-04-03T02:53:13.777Z,40.10
2017-04-03T02:54:11.622Z,40.70
2017-04-03T02:55:09.410Z,40.10
2017-04-03T02:56:07.210Z,40.10
2017-04-03T02:57:04.997Z,40.10
2017-04-03T02:58:02.826Z,40.10
2017-04-03T02:59:00.630Z,40.20
2017-04-03T02:59:58.409Z,40.20
2017-04-03T03:00:56.270Z,40.10
2017-04-03T03:01:54.096Z,40.10
2017-04-03T03:02:51.909Z,40.10
2017-04-03T03:03:49.707Z,40.10
2017-04-03T03:04:47.519Z,40.10
2017-04-03T03:05:45.362Z,40.10
2017-04-03T03:06:43.174Z,40.20
2017-04-03T03:07:40.971Z,40.10
2017-04-03T03:08:38.793Z,40.10
2017-04-03T03:09:36.610Z,40.10
2017-04-03T03:10:35.157Z,40.10
2017-04-03T03:11:32.944Z,40.20
2017-04-03T03:12:30.741Z,40.20
2017-04-03T03:13:28.521Z,40.10
2017-04-03T03:14:26.333Z,40.10
2017-04-03T03:15:24.130Z,40.10
2017-04-03T03:16:21.933Z,40.10
2017-04-03T03:17:19.717Z,40.10
2017-04-03T03:18:17.525Z,40.10
2017-04-03T03:19:15.313Z,40.10
2017-04-03T03:20:13.113Z,40.10
2017-04-03T03:21:10.913Z,40.10
2017-04-03T03:22:08.711Z,40.10
2017-04-03T03:23:06.498Z,40.10
2017-04-03T03:24:04.291Z,40.10
2017-04-03T03:25:02.093Z,40.10
2017-04-03T03:25:59.892Z,40.10
2017-04-03T03:26:57.692Z,40.10
2017-04-03T03:27:55.497Z,40.10
2017-04-03T03:28:54.025Z,40.10
2017-04-03T03:29:51.829Z,40.10
2017-04-03T03:30:49.661Z,40.10
2017-04-03T03:31:47.474Z,40.10
2017-04-03T03:32:45.253Z,40.10
2017-04-03T03:33:43.045Z,40.10
2017-04-03T03:34:40.843Z,40.10
2017-04-03T03:35:38.683Z,40.10
2017-04-03T03:36:36.461Z,40.10
2017-04-03T03:37:34.241Z,40.10
2017-04-03T03:38:32.017Z,40.10
2017-04-03T03:39:30.569Z,40.10
2017-04-03T03:40:28.379Z,40.80
2017-04-03T03:41:26.197Z,40.10
2017-04-03T03:42:23.982Z,40.10
2017-04-03T03:43:22.517Z,40.10
2017-04-03T03:44:20.300Z,40.10
2017-04-03T03:45:18.841Z,40.10
2017-04-03T03:46:16.637Z,40.10
2017-04-03T03:47:14.417Z,40.10
2017-04-03T03:48:12.197Z,40.10
2017-04-03T03:49:09.973Z,40.20
2017-04-03T03:50:07.760Z,40.10
2017-04-03T03:51:05.627Z,40.10
2017-04-03T03:52:03.449Z,40.10
2017-04-03T03:53:01.226Z,40.10
2017-04-03T03:53:58.992Z,40.10
2017-04-03T03:54:56.757Z,40.10
2017-04-03T03:55:59.165Z,40.10
2017-04-03T03:57:02.756Z,40.10
2017-04-03T04:00:10.487Z,40.10
2017-04-03T04:01:08.282Z,40.10
2017-04-03T04:02:06.047Z,40.10
2017-04-03T04:03:03.851Z,40.10
2017-04-03T04:04:02.386Z,40.20
2017-04-03T04:05:00.162Z,40.10
2017-04-03T04:05:58.681Z,40.20
2017-04-03T04:06:56.445Z,40.10
2017-04-03T04:07:54.950Z,40.10
2017-04-03T04:08:52.719Z,40.20
2017-04-03T04:09:50.477Z,40.10
2017-04-03T04:10:48.254Z,40.80
2017-04-03T04:11:46.020Z,40.20
2017-04-03T04:12:43.788Z,40.10
2017-04-03T04:13:41.557Z,40.10
2017-04-03T04:14:39.357Z,40.10
2017-04-03T04:15:37.155Z,40.10
2017-04-03T04:16:34.943Z,40.10
2017-04-03T04:17:32.721Z,40.10
2017-04-03T04:18:30.493Z,40.10
2017-04-03T04:19:28.265Z,40.10
2017-04-03T04:20:26.042Z,40.10
2017-04-03T04:21:23.851Z,40.10
2017-04-03T04:22:21.621Z,40.10
2017-04-03T04:23:19.373Z,40.10
2017-04-03T04:24:17.142Z,40.10
2017-04-03T04:25:14.914Z,40.10
2017-04-03T04:26:12.670Z,40.20
2017-04-03T04:27:11.246Z,40.20
2017-04-03T04:28:09.477Z,40.10
2017-04-03T04:29:07.289Z,40.10
2017-04-03T04:30:05.093Z,40.20
2017-04-03T04:31:02.853Z,40.10
2017-04-03T04:32:00.638Z,40.70
2017-04-03T04:32:58.424Z,40.10
2017-04-03T04:33:56.205Z,40.20
2017-04-03T04:34:53.993Z,40.20
2017-04-03T04:35:51.741Z,40.10
2017-04-03T04:36:49.602Z,40.10
2017-04-03T04:37:47.376Z,40.10
2017-04-03T04:38:45.889Z,40.20
2017-04-03T04:39:43.651Z,40.20
2017-04-03T04:40:41.450Z,40.20
2017-04-03T04:41:39.217Z,40.90
2017-04-03T04:42:37.141Z,40.20
2017-04-03T04:43:34.908Z,40.20
2017-04-03T04:44:32.665Z,40.20
2017-04-03T04:45:30.433Z,40.10
2017-04-03T04:46:28.200Z,40.20
2017-04-03T04:47:26.024Z,40.20
2017-04-03T04:48:23.801Z,40.10
2017-04-03T04:49:21.565Z,40.10
2017-04-03T04:50:19.334Z,40.20
2017-04-03T04:51:17.130Z,40.20
2017-04-03T04:52:14.949Z,40.20
2017-04-03T04:53:12.767Z,40.20
2017-04-03T04:54:10.559Z,40.10
2017-04-03T04:55:08.378Z,40.20
2017-04-03T04:56:06.918Z,40.20
2017-04-03T04:57:04.729Z,40.20
2017-04-03T04:58:02.538Z,40.10
2017-04-03T04:59:00.358Z,40.10
2017-04-03T04:59:58.165Z,40.10
2017-04-03T05:00:55.954Z,40.50
2017-04-03T05:01:53.765Z,40.10
2017-04-03T05:02:51.664Z,40.10
2017-04-03T05:03:49.486Z,40.10
2017-04-03T05:04:47.289Z,40.10
2017-04-03T05:05:45.102Z,40.10
2017-04-03T05:06:42.936Z,40.10
2017-04-03T05:07:40.750Z,40.10
2017-04-03T05:08:38.537Z,40.10
2017-04-03T05:09:36.330Z,40.10
2017-04-03T05:10:34.863Z,40.10
2017-04-03T05:11:32.658Z,40.10
2017-04-03T05:12:30.475Z,40.10
2017-04-03T05:13:28.290Z,40.10
2017-04-03T05:14:26.086Z,40.20
2017-04-03T05:15:23.941Z,40.10
2017-04-03T05:16:21.777Z,40.10
2017-04-03T05:17:19.601Z,40.10
2017-04-03T05:18:17.398Z,40.10
2017-04-03T05:19:15.247Z,40.10
2017-04-03T05:20:13.110Z,40.10
2017-04-03T05:21:10.918Z,40.10
2017-04-03T05:22:08.774Z,40.10
2017-04-03T05:23:07.301Z,40.10
2017-04-03T05:24:05.134Z,40.10
2017-04-03T05:25:02.958Z,40.10
2017-04-03T05:26:01.554Z,40.00
2017-04-03T05:26:59.390Z,40.10
2017-04-03T05:27:57.245Z,40.00
2017-04-03T05:28:55.101Z,40.00
2017-04-03T05:29:52.903Z,40.00
2017-04-03T05:30:50.792Z,40.00
2017-04-03T05:31:48.635Z,40.00
2017-04-03T05:32:46.474Z,40.00
2017-04-03T05:33:44.302Z,40.00
2017-04-03T05:34:42.157Z,40.00
2017-04-03T05:35:39.935Z,40.00
2017-04-03T05:36:37.742Z,40.00
2017-04-03T05:37:35.558Z,40.00
2017-04-03T05:38:33.443Z,40.00
2017-04-03T05:39:31.350Z,40.00
2017-04-03T05:40:29.189Z,40.00
2017-04-03T05:41:27.003Z,40.00
2017-04-03T05:42:24.809Z,40.00
2017-04-03T05:43:23.014Z,40.00
2017-04-03T05:44:21.573Z,40.00
2017-04-03T05:45:19.753Z,40.00
2017-04-03T05:46:17.569Z,40.00
2017-04-03T05:47:15.467Z,40.00
2017-04-03T05:48:13.309Z,40.00
2017-04-03T05:49:11.225Z,40.00
2017-04-03T05:50:09.017Z,40.00
2017-04-03T05:51:06.849Z,40.00
2017-04-03T05:52:04.689Z,40.00
2017-04-03T05:53:02.588Z,40.20
2017-04-03T05:54:01.150Z,40.60
2017-04-03T05:54:58.990Z,40.60
2017-04-03T05:55:56.881Z,40.00
2017-04-03T05:56:54.703Z,40.00
2017-04-03T05:57:52.561Z,40.00
2017-04-03T05:58:50.417Z,40.10
2017-04-03T05:59:48.341Z,40.00
2017-04-03T06:00:46.165Z,40.00
2017-04-03T06:01:44.050Z,40.00
2017-04-03T06:02:41.889Z,39.90
2017-04-03T06:03:39.734Z,40.00
2017-04-03T06:04:37.551Z,39.90
2017-04-03T06:05:35.394Z,40.00
2017-04-03T06:06:33.211Z,40.00
2017-04-03T06:07:31.089Z,40.00
2017-04-03T06:08:29.009Z,40.00
2017-04-03T06:09:27.086Z,40.00
2017-04-03T06:10:24.930Z,40.00
2017-04-03T06:11:22.926Z,40.00
2017-04-03T06:12:20.786Z,40.00
2017-04-03T06:13:19.399Z,39.90
2017-04-03T06:14:17.487Z,40.00
2017-04-03T06:15:15.519Z,40.00
2017-04-03T06:16:13.569Z,40.00
2017-04-03T06:17:11.411Z,40.00
2017-04-03T06:18:10.025Z,40.00
2017-04-03T06:19:08.839Z,39.90
2017-04-03T06:20:07.473Z,40.00
2017-04-03T06:21:05.256Z,39.90
2017-04-03T06:22:03.936Z,39.90
2017-04-03T06:23:02.511Z,39.90
2017-04-03T06:24:00.326Z,39.90
2017-04-03T06:24:58.161Z,39.80
2017-04-03T06:25:55.969Z,39.80
2017-04-03T06:26:54.026Z,39.80
2017-04-03T06:27:51.857Z,39.80
2017-04-03T06:28:49.717Z,39.80
2017-04-03T06:29:47.699Z,39.80
2017-04-03T06:30:45.560Z,39.80
2017-04-03T06:31:43.443Z,39.80
2017-04-03T06:32:41.222Z,39.80
2017-04-03T06:33:39.037Z,39.80
2017-04-03T06:34:36.865Z,39.80
2017-04-03T06:35:34.679Z,39.80
2017-04-03T06:36:32.601Z,39.80
2017-04-03T06:37:30.426Z,39.80
2017-04-03T06:38:28.275Z,39.80
2017-04-03T06:39:26.085Z,39.80
2017-04-03T06:40:23.907Z,39.80
2017-04-03T06:41:21.801Z,39.80
2017-04-03T06:42:19.645Z,39.80
2017-04-03T06:43:17.512Z,39.70
2017-04-03T06:44:15.345Z,39.70
2017-04-03T06:45:13.210Z,39.10
2017-04-03T06:46:11.038Z,39.70
2017-04-03T06:47:08.878Z,40.10
2017-04-03T06:48:06.693Z,40.50
2017-04-03T06:49:04.550Z,40.80
2017-04-03T06:50:02.365Z,41.00
2017-04-03T06:51:00.385Z,41.60
2017-04-03T06:51:58.250Z,42.10
2017-04-03T06:52:56.102Z,41.60
2017-04-03T06:53:53.934Z,41.70
2017-04-03T06:54:51.905Z,41.90
2017-04-03T06:55:49.753Z,41.90
2017-04-03T06:56:47.554Z,42.10
2017-04-03T06:57:45.481Z,42.10
2017-04-03T06:58:43.281Z,42.20
2017-04-03T06:59:41.110Z,42.20
2017-04-03T07:00:38.911Z,42.40
2017-04-03T07:01:36.866Z,42.40
2017-04-03T07:02:42.377Z,42.50
2017-04-03T07:03:41.167Z,42.50
2017-04-03T07:04:39.412Z,42.50
2017-04-03T07:05:37.271Z,42.50
2017-04-03T07:06:35.424Z,42.60
2017-04-03T07:07:33.772Z,42.80
2017-04-03T07:08:31.675Z,42.80
2017-04-03T07:09:29.774Z,42.70
2017-04-03T07:10:27.779Z,42.70
2017-04-03T07:11:25.641Z,42.90
2017-04-03T07:12:23.480Z,43.10
2017-04-03T07:13:21.607Z,43.00
2017-04-03T07:14:20.161Z,43.60
2017-04-03T07:15:19.637Z,43.70
2017-04-03T07:16:18.125Z,43.20
2017-04-03T07:17:16.575Z,43.30
2017-04-03T07:18:14.898Z,43.40
2017-04-03T07:19:14.281Z,43.30
2017-04-03T07:20:12.361Z,43.40
2017-04-03T07:21:10.235Z,43.40
2017-04-03T07:22:08.436Z,43.40
2017-04-03T07:23:07.136Z,43.40
2017-04-03T07:24:04.959Z,43.50
2017-04-03T07:25:03.801Z,43.50
2017-04-03T07:26:01.665Z,43.50
2017-04-03T07:26:59.526Z,43.60
2017-04-03T07:27:57.640Z,43.60
2017-04-03T07:28:55.983Z,43.60
2017-04-03T07:29:53.806Z,43.70
2017-04-03T07:30:51.632Z,43.60
2017-04-03T07:31:49.468Z,43.70
2017-04-03T07:32:47.528Z,43.80
2017-04-03T07:33:45.353Z,43.90
2017-04-03T07:34:43.189Z,43.90
2017-04-03T07:35:41.138Z,44.10
2017-04-03T07:36:39.282Z,44.00
2017-04-03T07:37:37.759Z,44.00
2017-04-03T07:38:35.841Z,43.90
2017-04-03T07:39:34.622Z,44.00
2017-04-03T07:40:32.602Z,44.10
2017-04-03T07:41:30.406Z,44.00
2017-04-03T07:42:28.195Z,44.10
2017-04-03T07:43:25.982Z,44.00
2017-04-03T07:44:23.873Z,44.00
2017-04-03T07:45:22.406Z,44.10
2017-04-03T07:46:20.242Z,44.10
2017-04-03T07:47:18.041Z,44.10
2017-04-03T07:48:15.854Z,44.20
2017-04-03T07:49:14.341Z,44.20
2017-04-03T07:50:12.243Z,44.10
2017-04-03T07:51:10.107Z,44.20
2017-04-03T07:52:07.941Z,44.20
2017-04-03T07:53:05.836Z,44.20
2017-04-03T07:54:03.642Z,44.10
2017-04-03T07:55:01.431Z,44.00
2017-04-03T07:55:59.368Z,44.10
2017-04-03T07:56:57.196Z,44.10
2017-04-03T07:57:55.033Z,44.20
2017-04-03T07:58:52.883Z,44.10
2017-04-03T07:59:50.732Z,44.30
2017-04-03T08:00:49.359Z,44.30
2017-04-03T08:01:47.186Z,44.30
2017-04-03T08:02:45.166Z,44.30
2017-04-03T08:03:42.933Z,44.30
2017-04-03T08:04:40.726Z,44.30
2017-04-03T08:05:38.689Z,44.30
2017-04-03T08:06:36.893Z,44.30
2017-04-03T08:07:34.897Z,44.40
2017-04-03T08:08:32.821Z,44.40
2017-04-03T08:09:30.621Z,44.40
2017-04-03T08:10:28.462Z,44.40
2017-04-03T08:11:26.307Z,44.30
2017-04-03T08:12:24.838Z,44.30
2017-04-03T08:13:22.690Z,44.20
2017-04-03T08:14:20.819Z,44.30
2017-04-03T08:15:18.610Z,44.40
2017-04-03T08:16:16.901Z,44.40
2017-04-03T08:17:14.743Z,44.20
2017-04-03T08:18:13.474Z,44.30
2017-04-03T08:19:11.437Z,44.40
2017-04-03T08:20:09.851Z,44.30
2017-04-03T08:21:07.688Z,44.30
2017-04-03T08:22:05.522Z,44.20
2017-04-03T08:23:03.406Z,44.30
2017-04-03T08:24:01.314Z,44.20
2017-04-03T08:24:59.094Z,44.10
2017-04-03T08:25:56.862Z,44.10
2017-04-03T08:26:54.754Z,44.00
2017-04-03T08:27:52.579Z,44.20
2017-04-03T08:28:50.498Z,44.30
2017-04-03T08:29:48.499Z,44.20
2017-04-03T08:30:46.365Z,44.20
2017-04-03T08:31:44.169Z,44.10
2017-04-03T08:32:42.894Z,44.60
2017-04-03T08:33:41.309Z,44.00
2017-04-03T08:34:39.136Z,44.20
2017-04-03T08:35:37.337Z,44.10
2017-04-03T08:36:35.469Z,44.10
2017-04-03T08:37:33.293Z,44.20
2017-04-03T08:38:31.261Z,44.20
2017-04-03T08:39:29.826Z,44.00
2017-04-03T08:40:27.593Z,43.90
2017-04-03T08:41:25.389Z,44.00
2017-04-03T08:43:21.937Z,43.80
2017-04-03T08:44:19.902Z,44.00
2017-04-03T08:45:17.786Z,43.70
2017-04-03T08:46:15.705Z,43.90
2017-04-03T08:47:13.541Z,43.80
2017-04-03T08:48:11.423Z,44.50
2017-04-03T08:49:09.364Z,43.90
2017-04-03T08:50:07.260Z,44.10
2017-04-03T08:51:05.109Z,44.00
2017-04-03T08:52:03.081Z,44.00
2017-04-03T08:53:01.113Z,43.90
2017-04-03T08:53:59.819Z,44.10
2017-04-03T08:54:57.656Z,43.90
2017-04-03T08:55:55.761Z,43.80
2017-04-03T08:56:53.693Z,44.60
2017-04-03T08:57:51.762Z,44.00
2017-04-03T08:58:49.596Z,43.90
2017-04-03T08:59:47.397Z,43.80
2017-04-03T09:00:45.226Z,43.80
2017-04-03T09:01:43.309Z,44.00
2017-04-03T09:02:41.154Z,44.00
2017-04-03T09:03:38.934Z,43.80
2017-04-03T09:04:36.906Z,43.70
2017-04-03T09:05:34.719Z,43.80
2017-04-03T09:06:32.525Z,43.70
2017-04-03T09:07:30.369Z,43.90
2017-04-03T09:08:28.188Z,43.70
2017-04-03T09:09:26.082Z,43.80
2017-04-03T09:10:23.947Z,43.90
2017-04-03T09:11:21.797Z,43.70
2017-04-03T09:12:19.829Z,43.70
2017-04-03T09:13:17.690Z,43.60
2017-04-03T09:14:15.492Z,43.50
2017-04-03T09:15:13.424Z,43.70
2017-04-03T09:16:11.286Z,43.70
2017-04-03T09:17:09.912Z,43.70
2017-04-03T09:18:07.861Z,43.80
2017-04-03T09:19:05.697Z,43.70
2017-04-03T09:20:03.517Z,43.90
2017-04-03T09:21:01.386Z,43.60
2017-04-03T09:22:00.003Z,43.60
2017-04-03T09:22:57.813Z,43.60
2017-04-03T09:23:56.441Z,43.70
2017-04-03T09:24:54.286Z,43.70
2017-04-03T09:25:52.078Z,43.40
2017-04-03T09:26:49.873Z,43.70
2017-04-03T09:27:48.527Z,43.60
2017-04-03T09:28:46.354Z,43.60
2017-04-03T09:29:44.202Z,43.60
2017-04-03T09:30:42.053Z,43.60
2017-04-03T09:31:40.613Z,43.40
2017-04-03T09:32:38.452Z,43.60
2017-04-03T09:33:36.279Z,43.50
2017-04-03T09:34:34.087Z,43.50
2017-04-03T09:35:31.925Z,43.60
2017-04-03T09:36:29.720Z,43.50
2017-04-03T09:37:27.578Z,43.50
2017-04-03T09:38:25.405Z,43.40
2017-04-03T09:39:23.235Z,43.60
2017-04-03T09:40:21.042Z,43.60
2017-04-03T09:41:18.874Z,43.50
2017-04-03T09:42:16.731Z,43.30
2017-04-03T09:43:14.630Z,43.20
2017-04-03T09:44:12.427Z,43.20
2017-04-03T09:45:10.238Z,43.30
2017-04-03T09:46:08.061Z,43.20
2017-04-03T09:47:05.883Z,43.10
2017-04-03T09:48:03.721Z,43.30
2017-04-03T09:49:01.574Z,43.20
2017-04-03T09:49:59.472Z,43.30
2017-04-03T09:50:57.297Z,43.20
2017-04-03T09:51:55.085Z,43.50
2017-04-03T09:52:52.954Z,43.20
2017-04-03T09:53:50.782Z,43.10
2017-04-03T09:54:48.577Z,43.20
2017-04-03T09:55:46.405Z,43.20
2017-04-03T09:56:44.181Z,43.10
2017-04-03T09:57:41.977Z,43.20
2017-04-03T09:58:39.843Z,43.20
2017-04-03T10:00:36.300Z,42.80
2017-04-03T10:01:34.267Z,42.90
2017-04-03T10:02:32.137Z,43.00
2017-04-03T10:03:29.968Z,42.90
2017-04-03T10:04:27.819Z,42.90
2017-04-03T10:05:25.622Z,42.90
2017-04-03T10:06:23.392Z,43.00
2017-04-03T10:07:21.268Z,42.90
2017-04-03T10:08:19.032Z,42.90
2017-04-03T10:09:16.929Z,42.90
2017-04-03T10:10:14.718Z,42.90
2017-04-03T10:11:12.578Z,42.90
2017-04-03T10:12:10.366Z,42.90
2017-04-03T10:13:08.129Z,42.90
2017-04-03T10:14:05.947Z,43.00
2017-04-03T10:15:03.766Z,43.10
2017-04-03T10:16:01.546Z,43.00
2017-04-03T10:16:59.341Z,43.00
2017-04-03T10:17:57.147Z,42.90
2017-04-03T10:18:54.930Z,43.00
2017-04-03T10:19:52.802Z,42.70
2017-04-03T10:20:50.585Z,43.00
2017-04-03T10:21:48.408Z,42.90
2017-04-03T10:22:46.256Z,43.00
2017-04-03T10:23:44.063Z,42.80
2017-04-03T10:24:41.878Z,42.90
2017-04-03T10:25:39.673Z,42.90
2017-04-03T10:26:37.525Z,42.90
2017-04-03T10:27:35.382Z,42.70
2017-04-03T10:28:33.217Z,42.80
2017-04-03T10:29:31.052Z,42.90
2017-04-03T10:30:28.897Z,42.90
2017-04-03T10:31:26.736Z,42.80
2017-04-03T10:32:24.596Z,43.00
2017-04-03T10:33:22.464Z,42.80
2017-04-03T10:34:20.305Z,42.90
2017-04-03T10:35:18.133Z,43.00
2017-04-03T10:36:15.941Z,42.90
2017-04-03T10:37:13.758Z,42.70
2017-04-03T10:38:11.605Z,42.70
2017-04-03T10:39:09.377Z,42.60
2017-04-03T10:40:07.269Z,42.70
2017-04-03T10:41:05.854Z,42.70
2017-04-03T10:42:03.685Z,42.80
2017-04-03T10:43:02.257Z,42.90
2017-04-03T10:44:00.126Z,42.90
2017-04-03T10:44:58.670Z,42.70
2017-04-03T10:45:56.449Z,42.70
2017-04-03T10:46:54.404Z,42.70
2017-04-03T10:47:52.193Z,42.70
2017-04-03T10:48:50.052Z,42.70
2017-04-03T10:49:47.922Z,42.80
2017-04-03T10:50:45.961Z,42.90
2017-04-03T10:51:43.777Z,42.50
2017-04-03T10:52:41.752Z,42.40
2017-04-03T10:53:39.642Z,42.50
2017-04-03T10:54:37.489Z,42.60
2017-04-03T10:55:35.301Z,42.70
2017-04-03T10:56:33.097Z,42.60
2017-04-03T10:57:30.982Z,42.60
2017-04-03T10:58:28.849Z,42.50
2017-04-03T10:59:26.669Z,42.60
2017-04-03T11:00:24.538Z,42.60
2017-04-03T11:01:22.440Z,42.60
2017-04-03T11:02:20.252Z,42.70
2017-04-03T11:03:18.068Z,42.80
2017-04-03T11:04:15.882Z,42.90
2017-04-03T11:05:13.785Z,42.90
2017-04-03T11:06:11.661Z,42.90
2017-04-03T11:07:09.475Z,42.80
2017-04-03T11:08:07.297Z,42.60
2017-04-03T11:09:05.085Z,42.70
2017-04-03T11:10:02.934Z,42.70
2017-04-03T11:11:00.823Z,42.90
2017-04-03T11:11:58.590Z,42.90
2017-04-03T11:12:56.491Z,43.30
2017-04-03T11:13:54.351Z,42.70
2017-04-03T11:14:52.238Z,42.50
2017-04-03T11:15:50.813Z,42.50
2017-04-03T11:16:48.673Z,42.40
2017-04-03T11:17:46.519Z,42.20
2017-04-03T11:18:45.053Z,42.10
2017-04-03T11:19:42.879Z,42.20
2017-04-03T11:20:40.749Z,42.20
2017-04-03T11:21:38.573Z,42.20
2017-04-03T11:22:36.459Z,42.00
2017-04-03T11:23:34.305Z,42.10
2017-04-03T11:24:32.127Z,42.10
2017-04-03T11:25:29.953Z,42.00
2017-04-03T11:26:27.776Z,42.20
2017-04-03T11:27:25.571Z,42.10
2017-04-03T11:28:23.421Z,42.20
2017-04-03T11:29:21.297Z,42.30
2017-04-03T11:30:19.155Z,42.30
2017-04-03T11:31:17.053Z,42.20
2017-04-03T11:32:14.855Z,42.20
2017-04-03T11:33:12.643Z,42.10
2017-04-03T11:34:10.466Z,42.10
2017-04-03T11:35:08.290Z,42.20
2017-04-03T11:36:06.131Z,42.20
2017-04-03T11:37:04.000Z,42.10
2017-04-03T11:38:01.817Z,42.30
2017-04-03T11:39:00.350Z,42.20
2017-04-03T11:39:58.175Z,42.10
2017-04-03T11:40:55.997Z,42.20
2017-04-03T11:41:58.444Z,42.30
2017-04-03T11:42:56.281Z,42.10
2017-04-03T11:43:59.938Z,42.10
2017-04-03T11:45:03.650Z,42.20
2017-04-03T11:46:06.065Z,41.90
2017-04-03T11:47:10.471Z,42.10
2017-04-03T11:48:08.345Z,42.00
2017-04-03T11:49:11.945Z,42.00
2017-04-03T11:50:15.582Z,42.00
2017-04-03T11:51:19.265Z,42.10
2017-04-03T11:52:22.884Z,41.80
2017-04-03T11:53:26.309Z,41.90
2017-04-03T11:54:24.089Z,41.90
2017-04-03T11:55:21.889Z,42.00
2017-04-03T11:56:19.706Z,41.70
2017-04-03T11:57:17.517Z,41.90
2017-04-03T11:58:15.325Z,41.80
2017-04-03T11:59:13.254Z,41.70
2017-04-03T12:00:11.099Z,41.60
2017-04-03T12:01:08.908Z,41.70
2017-04-03T12:02:06.750Z,41.90
2017-04-03T12:03:04.697Z,42.00
2017-04-03T12:04:02.517Z,42.10
2017-04-03T12:05:00.309Z,41.80
2017-04-03T12:05:58.117Z,41.70
2017-04-03T12:06:55.930Z,42.30
2017-04-03T12:07:53.784Z,41.60
2017-04-03T12:08:51.824Z,41.80
2017-04-03T12:09:49.590Z,41.70
2017-04-03T12:10:47.349Z,41.90
2017-04-03T12:11:45.861Z,41.60
2017-04-03T12:12:43.685Z,41.60
2017-04-03T12:13:41.546Z,41.70
2017-04-03T12:14:39.383Z,41.60
2017-04-03T12:15:37.402Z,41.60
2017-04-03T12:16:35.206Z,41.50
2017-04-03T12:17:33.505Z,41.50
2017-04-03T12:18:31.333Z,41.30
2017-04-03T12:19:29.226Z,41.30
2017-04-03T12:20:27.079Z,41.60
2017-04-03T12:21:25.100Z,41.40
2017-04-03T12:22:22.984Z,41.40
2017-04-03T12:23:21.105Z,41.40
2017-04-03T12:24:18.917Z,41.40
2017-04-03T12:25:16.718Z,41.20
2017-04-03T12:26:14.566Z,41.40
2017-04-03T12:27:12.383Z,40.90
2017-04-03T12:28:09.826Z,41.30
2017-04-03T12:29:07.941Z,41.20
2017-04-03T12:30:05.445Z,41.20
2017-04-03T12:31:02.817Z,40.90
2017-04-03T12:32:00.633Z,41.10